BCY649 EDDH-ENCN
Flight info
| Callsign | BCY649 |
|---|---|
| Flight time | 0h 59m |
| Altitude | 35000 |
| Route | SOKWO1C SOKWO T814 EXNEL M105 AMRAK DCT AMSEV |
| Aircraft | A320/M-SDE3FGHIRWY/LB1 |
Departure
| Time | 2026-04-21 13:37 |
|---|---|
| Airport | Hamburg Helmut Schmidt Airport (EDDH) |
Arrival
| Time | 2026-04-21 14:36 |
|---|---|
| Airport | Kristiansand Airport (ENCN) |
| Time | Latitude | Longitude | Altitude | Speed | Heading |
|---|---|---|---|---|---|
| 2026-04-21 13:24 | 53.63112 | 10.00381 | 46 ft | 0 kts | 87° |
| 2026-04-21 13:30 | 53.63112 | 10.00379 | 46 ft | 2 kts | 87° |
| 2026-04-21 13:30 | 53.63111 | 10.00337 | 43 ft | 3 kts | 87° |
| 2026-04-21 13:31 | 53.63110 | 10.00301 | 44 ft | 4 kts | 98° |
| 2026-04-21 13:31 | 53.63119 | 10.00264 | 45 ft | 4 kts | 150° |
| 2026-04-21 13:31 | 53.63129 | 10.00257 | 43 ft | 0 kts | 176° |
| 2026-04-21 13:33 | 53.63091 | 10.00261 | 46 ft | 15 kts | 178° |
| 2026-04-21 13:33 | 53.62989 | 10.00172 | 47 ft | 18 kts | 213° |
| 2026-04-21 13:34 | 53.62878 | 10.00060 | 46 ft | 18 kts | 197° |
| 2026-04-21 13:34 | 53.62771 | 10.00140 | 48 ft | 18 kts | 155° |
| 2026-04-21 13:34 | 53.62649 | 10.00240 | 48 ft | 20 kts | 149° |
| 2026-04-21 13:34 | 53.62575 | 10.00215 | 46 ft | 12 kts | 237° |
| 2026-04-21 13:35 | 53.62545 | 10.00069 | 47 ft | 14 kts | 277° |
| 2026-04-21 13:35 | 53.62606 | 9.99971 | 47 ft | 0 kts | 333° |
| 2026-04-21 13:36 | 53.62763 | 9.99838 | 46 ft | 61 kts | 333° |
| 2026-04-21 13:36 | 53.63335 | 9.99342 | 47 ft | 120 kts | 333° |
| 2026-04-21 13:36 | 53.64209 | 9.98586 | 55 ft | 161 kts | 332° |
| 2026-04-21 13:36 | 53.65186 | 9.97717 | 623 ft | 157 kts | 338° |
| 2026-04-21 13:37 | 53.66157 | 9.96879 | 1298 ft | 158 kts | 338° |
| 2026-04-21 13:37 | 53.67190 | 9.96002 | 1693 ft | 176 kts | 339° |
| 2026-04-21 13:37 | 53.68367 | 9.95049 | 2000 ft | 199 kts | 344° |
| 2026-04-21 13:37 | 53.69743 | 9.94674 | 2527 ft | 202 kts | 4° |
| 2026-04-21 13:38 | 53.71171 | 9.94695 | 3193 ft | 207 kts | 4° |
| 2026-04-21 13:38 | 53.72620 | 9.94721 | 3987 ft | 209 kts | 9° |
| 2026-04-21 13:38 | 53.74023 | 9.95315 | 4661 ft | 214 kts | 28° |
| 2026-04-21 13:38 | 53.75356 | 9.96680 | 5066 ft | 236 kts | 36° |
| 2026-04-21 13:39 | 53.76776 | 9.98248 | 5641 ft | 250 kts | 35° |
| 2026-04-21 13:39 | 53.78247 | 9.99870 | 6550 ft | 254 kts | 35° |
| 2026-04-21 13:39 | 53.79742 | 10.01511 | 7393 ft | 258 kts | 35° |
| 2026-04-21 13:39 | 53.81258 | 10.03169 | 8232 ft | 261 kts | 35° |
| 2026-04-21 13:40 | 53.82793 | 10.04845 | 9045 ft | 265 kts | 35° |
| 2026-04-21 13:40 | 53.84358 | 10.06553 | 9891 ft | 268 kts | 35° |
| 2026-04-21 13:40 | 53.85933 | 10.08276 | 10659 ft | 273 kts | 36° |
| 2026-04-21 13:40 | 53.87627 | 10.10035 | 10917 ft | 297 kts | 28° |
| 2026-04-21 13:41 | 53.89676 | 10.11140 | 11083 ft | 325 kts | 11° |
| 2026-04-21 13:41 | 53.91995 | 10.11057 | 11220 ft | 353 kts | 352° |
| 2026-04-21 13:41 | 53.94488 | 10.10031 | 11353 ft | 374 kts | 349° |
| 2026-04-21 13:41 | 53.97075 | 10.08921 | 11589 ft | 389 kts | 349° |
| 2026-04-21 13:42 | 53.99720 | 10.07778 | 12126 ft | 395 kts | 349° |
| 2026-04-21 13:42 | 54.02358 | 10.06641 | 12739 ft | 398 kts | 349° |
| 2026-04-21 13:42 | 54.05055 | 10.05484 | 13385 ft | 401 kts | 349° |
| 2026-04-21 13:42 | 54.07765 | 10.04246 | 14024 ft | 406 kts | 345° |
| 2026-04-21 13:43 | 54.10386 | 10.02305 | 14564 ft | 415 kts | 335° |
| 2026-04-21 13:43 | 54.12807 | 9.99546 | 15092 ft | 423 kts | 324° |
| 2026-04-21 13:43 | 54.14935 | 9.96016 | 15605 ft | 430 kts | 315° |
| 2026-04-21 13:43 | 54.16936 | 9.92197 | 16102 ft | 433 kts | 315° |
| 2026-04-21 13:44 | 54.18952 | 9.88345 | 16586 ft | 437 kts | 315° |
| 2026-04-21 13:44 | 54.20988 | 9.84451 | 17060 ft | 440 kts | 315° |
| 2026-04-21 13:44 | 54.23037 | 9.80540 | 17524 ft | 443 kts | 315° |
| 2026-04-21 13:44 | 54.25273 | 9.76928 | 17978 ft | 443 kts | 324° |
| 2026-04-21 13:45 | 54.27751 | 9.73791 | 18425 ft | 444 kts | 327° |
| 2026-04-21 13:45 | 54.30262 | 9.70675 | 18851 ft | 447 kts | 327° |
| 2026-04-21 13:45 | 54.32856 | 9.67731 | 19225 ft | 447 kts | 335° |
| 2026-04-21 13:45 | 54.35677 | 9.65538 | 19610 ft | 445 kts | 345° |
| 2026-04-21 13:46 | 54.38658 | 9.64184 | 19944 ft | 443 kts | 354° |
| 2026-04-21 13:46 | 54.41673 | 9.63697 | 20281 ft | 441 kts | 4° |
| 2026-04-21 13:46 | 54.44739 | 9.64081 | 20627 ft | 438 kts | 13° |
| 2026-04-21 13:46 | 54.47741 | 9.65062 | 20967 ft | 440 kts | 15° |
| 2026-04-21 13:47 | 54.50473 | 9.65970 | 21269 ft | 441 kts | 15° |
| 2026-04-21 13:47 | 54.53496 | 9.66966 | 21588 ft | 443 kts | 15° |
| 2026-04-21 13:47 | 54.56540 | 9.67942 | 21890 ft | 446 kts | 14° |
| 2026-04-21 13:47 | 54.59553 | 9.68887 | 22175 ft | 448 kts | 14° |
| 2026-04-21 13:48 | 54.62630 | 9.69845 | 22438 ft | 450 kts | 14° |
| 2026-04-21 13:48 | 54.65675 | 9.70791 | 22777 ft | 451 kts | 14° |
| 2026-04-21 13:48 | 54.68802 | 9.71687 | 23205 ft | 451 kts | 13° |
| 2026-04-21 13:48 | 54.71871 | 9.72483 | 23631 ft | 451 kts | 13° |
| 2026-04-21 13:49 | 54.74976 | 9.73239 | 24063 ft | 450 kts | 13° |
| 2026-04-21 13:49 | 54.78075 | 9.73981 | 24454 ft | 449 kts | 13° |
| 2026-04-21 13:49 | 54.81185 | 9.74564 | 24846 ft | 452 kts | 7° |
| 2026-04-21 13:49 | 54.84346 | 9.74382 | 25240 ft | 457 kts | 358° |
| 2026-04-21 13:50 | 54.87498 | 9.73484 | 25661 ft | 459 kts | 355° |
| 2026-04-21 13:50 | 54.90645 | 9.72503 | 26062 ft | 458 kts | 355° |
| 2026-04-21 13:50 | 54.93786 | 9.71533 | 26477 ft | 458 kts | 355° |
| 2026-04-21 13:50 | 54.96883 | 9.70582 | 26906 ft | 457 kts | 355° |
| 2026-04-21 13:51 | 55.00050 | 9.69603 | 27355 ft | 456 kts | 355° |
| 2026-04-21 13:51 | 55.03133 | 9.68646 | 27799 ft | 455 kts | 355° |
| 2026-04-21 13:51 | 55.06244 | 9.67679 | 28252 ft | 454 kts | 355° |
| 2026-04-21 13:51 | 55.09349 | 9.66708 | 28707 ft | 453 kts | 355° |
| 2026-04-21 13:52 | 55.12454 | 9.65733 | 29159 ft | 452 kts | 355° |
| 2026-04-21 13:52 | 55.15543 | 9.64760 | 29608 ft | 451 kts | 355° |
| 2026-04-21 13:52 | 55.18630 | 9.63787 | 30095 ft | 450 kts | 355° |
| 2026-04-21 13:52 | 55.21583 | 9.62856 | 30547 ft | 449 kts | 355° |
| 2026-04-21 13:53 | 55.24652 | 9.61889 | 30951 ft | 448 kts | 355° |
| 2026-04-21 13:53 | 55.27719 | 9.60923 | 31362 ft | 447 kts | 355° |
| 2026-04-21 13:53 | 55.30775 | 9.59964 | 31770 ft | 445 kts | 355° |
| 2026-04-21 13:53 | 55.33823 | 9.59024 | 32199 ft | 444 kts | 355° |
| 2026-04-21 13:54 | 55.36864 | 9.58095 | 32622 ft | 443 kts | 355° |
| 2026-04-21 13:54 | 55.39912 | 9.57165 | 33047 ft | 442 kts | 355° |
| 2026-04-21 13:54 | 55.42938 | 9.56237 | 33443 ft | 441 kts | 354° |
| 2026-04-21 13:54 | 55.45923 | 9.55321 | 33872 ft | 440 kts | 354° |
| 2026-04-21 13:55 | 55.48941 | 9.54395 | 34290 ft | 439 kts | 354° |
| 2026-04-21 13:55 | 55.51946 | 9.53469 | 34669 ft | 438 kts | 354° |
| 2026-04-21 13:55 | 55.54949 | 9.52543 | 34988 ft | 438 kts | 354° |
| 2026-04-21 13:55 | 55.57954 | 9.51613 | 35292 ft | 438 kts | 354° |
| 2026-04-21 13:56 | 55.60970 | 9.50681 | 35412 ft | 442 kts | 354° |
| 2026-04-21 13:56 | 55.64016 | 9.49741 | 35434 ft | 449 kts | 354° |
| 2026-04-21 13:56 | 55.70219 | 9.47822 | 35432 ft | 459 kts | 353° |
| 2026-04-21 13:57 | 55.76530 | 9.45844 | 35423 ft | 461 kts | 353° |
| 2026-04-21 13:57 | 55.82859 | 9.43854 | 35423 ft | 461 kts | 353° |
| 2026-04-21 13:58 | 55.89185 | 9.41853 | 35423 ft | 461 kts | 353° |
| 2026-04-21 13:58 | 55.95501 | 9.39827 | 35407 ft | 461 kts | 353° |
| 2026-04-21 13:59 | 56.01816 | 9.37715 | 35416 ft | 461 kts | 353° |
| 2026-04-21 13:59 | 56.08092 | 9.35609 | 35421 ft | 464 kts | 353° |
| 2026-04-21 14:00 | 56.14469 | 9.33478 | 35424 ft | 466 kts | 353° |
| 2026-04-21 14:00 | 56.20863 | 9.31336 | 35422 ft | 467 kts | 353° |
| 2026-04-21 14:01 | 56.27032 | 9.29260 | 35410 ft | 466 kts | 352° |
| 2026-04-21 14:01 | 56.33409 | 9.27121 | 35395 ft | 466 kts | 352° |
| 2026-04-21 14:02 | 56.35522 | 9.26411 | 35149 ft | 464 kts | 353° |
| 2026-04-21 14:02 | 56.39708 | 9.24993 | 34831 ft | 448 kts | 353° |
| 2026-04-21 14:02 | 56.42729 | 9.23960 | 34726 ft | 436 kts | 352° |
| 2026-04-21 14:03 | 56.48599 | 9.21963 | 34550 ft | 430 kts | 353° |
| 2026-04-21 14:03 | 56.54522 | 9.19959 | 34344 ft | 434 kts | 352° |
| 2026-04-21 14:03 | 56.57490 | 9.18950 | 34236 ft | 435 kts | 352° |
| 2026-04-21 14:04 | 56.60468 | 9.17938 | 34133 ft | 435 kts | 352° |
| 2026-04-21 14:04 | 56.66398 | 9.15906 | 33927 ft | 436 kts | 352° |
| 2026-04-21 14:04 | 56.69379 | 9.14881 | 33819 ft | 436 kts | 352° |
| 2026-04-21 14:05 | 56.72369 | 9.13852 | 33712 ft | 436 kts | 352° |
| 2026-04-21 14:05 | 56.75352 | 9.12824 | 33605 ft | 437 kts | 352° |
| 2026-04-21 14:05 | 56.78341 | 9.11792 | 33488 ft | 437 kts | 352° |
| 2026-04-21 14:05 | 56.81329 | 9.10761 | 33382 ft | 437 kts | 352° |
| 2026-04-21 14:06 | 56.84322 | 9.09727 | 33297 ft | 437 kts | 352° |
| 2026-04-21 14:06 | 56.87312 | 9.08693 | 33178 ft | 437 kts | 352° |
| 2026-04-21 14:06 | 56.90310 | 9.07658 | 33073 ft | 438 kts | 352° |
| 2026-04-21 14:06 | 56.93299 | 9.06621 | 32968 ft | 438 kts | 352° |
| 2026-04-21 14:07 | 56.96304 | 9.05569 | 32868 ft | 438 kts | 352° |
| 2026-04-21 14:07 | 56.99304 | 9.04514 | 32764 ft | 439 kts | 352° |
| 2026-04-21 14:07 | 57.02264 | 9.03471 | 32631 ft | 440 kts | 352° |
| 2026-04-21 14:07 | 57.05292 | 9.02407 | 31779 ft | 446 kts | 352° |
| 2026-04-21 14:08 | 57.08354 | 9.01335 | 30937 ft | 449 kts | 352° |
| 2026-04-21 14:08 | 57.11442 | 9.00255 | 29888 ft | 455 kts | 352° |
| 2026-04-21 14:08 | 57.14563 | 8.99159 | 28823 ft | 458 kts | 352° |
| 2026-04-21 14:08 | 57.17705 | 8.98050 | 27809 ft | 461 kts | 352° |
| 2026-04-21 14:09 | 57.20865 | 8.96932 | 26644 ft | 465 kts | 352° |
| 2026-04-21 14:09 | 57.24064 | 8.95802 | 25409 ft | 471 kts | 352° |
| 2026-04-21 14:09 | 57.27308 | 8.94654 | 24274 ft | 475 kts | 351° |
| 2026-04-21 14:09 | 57.30552 | 8.93503 | 23190 ft | 474 kts | 351° |
| 2026-04-21 14:10 | 57.33774 | 8.92359 | 22293 ft | 467 kts | 351° |
| 2026-04-21 14:10 | 57.36951 | 8.91232 | 21408 ft | 462 kts | 351° |
| 2026-04-21 14:10 | 57.39041 | 8.90488 | 20800 ft | 460 kts | 351° |
| 2026-04-21 14:10 | 57.42172 | 8.89368 | 19906 ft | 455 kts | 351° |
| 2026-04-21 14:11 | 57.45269 | 8.88256 | 19038 ft | 451 kts | 351° |
| 2026-04-21 14:11 | 57.49338 | 8.86788 | 17797 ft | 445 kts | 351° |
| 2026-04-21 14:11 | 57.51383 | 8.86048 | 17219 ft | 440 kts | 350° |
| 2026-04-21 14:11 | 57.54371 | 8.84967 | 16368 ft | 434 kts | 350° |
| 2026-04-21 14:12 | 57.57271 | 8.83920 | 15599 ft | 427 kts | 350° |
| 2026-04-21 14:12 | 57.60211 | 8.82856 | 14872 ft | 420 kts | 350° |
| 2026-04-21 14:12 | 57.63042 | 8.81832 | 14104 ft | 417 kts | 350° |
| 2026-04-21 14:12 | 57.65865 | 8.80808 | 13267 ft | 413 kts | 349° |
| 2026-04-21 14:13 | 57.68595 | 8.79306 | 12655 ft | 406 kts | 340° |
| 2026-04-21 14:13 | 57.71191 | 8.77225 | 11986 ft | 402 kts | 337° |
| 2026-04-21 14:13 | 57.73696 | 8.75155 | 11836 ft | 383 kts | 337° |
| 2026-04-21 14:13 | 57.76068 | 8.73182 | 11708 ft | 364 kts | 337° |
| 2026-04-21 14:14 | 57.78328 | 8.71299 | 11578 ft | 347 kts | 338° |
| 2026-04-21 14:14 | 57.80486 | 8.69503 | 11452 ft | 332 kts | 338° |
| 2026-04-21 14:14 | 57.82555 | 8.67780 | 11326 ft | 319 kts | 338° |
| 2026-04-21 14:14 | 57.84544 | 8.66117 | 11200 ft | 307 kts | 338° |
| 2026-04-21 14:15 | 57.86438 | 8.64532 | 10866 ft | 292 kts | 338° |
| 2026-04-21 14:15 | 57.88274 | 8.62999 | 10458 ft | 283 kts | 338° |
| 2026-04-21 14:15 | 57.90075 | 8.61498 | 10175 ft | 284 kts | 338° |
| 2026-04-21 14:15 | 57.91879 | 8.59992 | 9699 ft | 282 kts | 338° |
| 2026-04-21 14:16 | 57.93670 | 8.58493 | 9229 ft | 283 kts | 338° |
| 2026-04-21 14:16 | 57.95455 | 8.57001 | 9049 ft | 279 kts | 338° |
| 2026-04-21 14:16 | 57.97227 | 8.55518 | 8926 ft | 279 kts | 338° |
| 2026-04-21 14:16 | 57.98998 | 8.54037 | 8778 ft | 278 kts | 338° |
| 2026-04-21 14:17 | 58.00766 | 8.52557 | 8591 ft | 279 kts | 338° |
| 2026-04-21 14:17 | 58.02539 | 8.51071 | 8199 ft | 279 kts | 338° |
| 2026-04-21 14:17 | 58.04312 | 8.49581 | 7846 ft | 278 kts | 338° |
| 2026-04-21 14:17 | 58.06070 | 8.48096 | 7504 ft | 275 kts | 338° |
| 2026-04-21 14:18 | 58.07808 | 8.46626 | 6894 ft | 273 kts | 338° |
| 2026-04-21 14:18 | 58.09535 | 8.45167 | 6263 ft | 271 kts | 338° |
| 2026-04-21 14:18 | 58.11244 | 8.43721 | 5709 ft | 266 kts | 338° |
| 2026-04-21 14:18 | 58.12913 | 8.42308 | 5346 ft | 265 kts | 338° |
| 2026-04-21 14:19 | 58.14591 | 8.40887 | 4943 ft | 265 kts | 338° |
| 2026-04-21 14:19 | 58.16237 | 8.39491 | 4670 ft | 250 kts | 338° |
| 2026-04-21 14:19 | 58.17763 | 8.38193 | 4525 ft | 232 kts | 338° |
| 2026-04-21 14:19 | 58.19204 | 8.36967 | 4152 ft | 224 kts | 338° |
| 2026-04-21 14:20 | 58.20602 | 8.35726 | 3825 ft | 217 kts | 334° |
| 2026-04-21 14:20 | 58.21891 | 8.34464 | 3692 ft | 199 kts | 333° |
| 2026-04-21 14:20 | 58.23052 | 8.33301 | 3614 ft | 178 kts | 333° |
| 2026-04-21 14:20 | 58.24076 | 8.32262 | 3528 ft | 155 kts | 332° |
| 2026-04-21 14:21 | 58.24943 | 8.31181 | 3286 ft | 144 kts | 324° |
| 2026-04-21 14:21 | 58.25708 | 8.29968 | 3086 ft | 143 kts | 318° |
| 2026-04-21 14:21 | 58.26383 | 8.28655 | 2895 ft | 141 kts | 314° |
| 2026-04-21 14:21 | 58.27008 | 8.27137 | 2696 ft | 143 kts | 304° |
| 2026-04-21 14:22 | 58.27449 | 8.25473 | 2506 ft | 144 kts | 291° |
| 2026-04-21 14:22 | 58.27685 | 8.23625 | 2314 ft | 144 kts | 277° |
| 2026-04-21 14:22 | 58.27698 | 8.21720 | 2120 ft | 144 kts | 263° |
| 2026-04-21 14:22 | 58.27486 | 8.19864 | 1924 ft | 144 kts | 250° |
| 2026-04-21 14:23 | 58.27060 | 8.18158 | 1741 ft | 143 kts | 236° |
| 2026-04-21 14:23 | 58.26447 | 8.16688 | 1547 ft | 141 kts | 224° |
| 2026-04-21 14:23 | 58.25690 | 8.15529 | 1356 ft | 139 kts | 213° |
| 2026-04-21 14:23 | 58.24899 | 8.14486 | 1136 ft | 136 kts | 213° |
| 2026-04-21 14:24 | 58.24127 | 8.13458 | 920 ft | 135 kts | 214° |
| 2026-04-21 14:24 | 58.23371 | 8.12450 | 725 ft | 134 kts | 214° |
| 2026-04-21 14:24 | 58.22617 | 8.11438 | 471 ft | 132 kts | 213° |
| 2026-04-21 14:24 | 58.21863 | 8.10434 | 285 ft | 134 kts | 213° |
| 2026-04-21 14:25 | 58.21112 | 8.09445 | 99 ft | 131 kts | 214° |
| 2026-04-21 14:25 | 58.20403 | 8.08478 | 314 ft | 118 kts | 215° |
| 2026-04-21 14:25 | 58.19716 | 8.07572 | 657 ft | 136 kts | 213° |
| 2026-04-21 14:25 | 58.18834 | 8.06469 | 913 ft | 164 kts | 214° |
| 2026-04-21 14:26 | 58.17736 | 8.05545 | 1080 ft | 185 kts | 184° |
| 2026-04-21 14:26 | 58.16468 | 8.06248 | 1288 ft | 203 kts | 138° |
| 2026-04-21 14:26 | 58.15816 | 8.08599 | 1720 ft | 209 kts | 92° |
| 2026-04-21 14:26 | 58.16017 | 8.11331 | 2281 ft | 211 kts | 75° |
| 2026-04-21 14:27 | 58.16403 | 8.14011 | 2879 ft | 211 kts | 71° |
| 2026-04-21 14:27 | 58.16824 | 8.16695 | 3389 ft | 215 kts | 71° |
| 2026-04-21 14:27 | 58.17241 | 8.19364 | 3489 ft | 213 kts | 71° |
| 2026-04-21 14:27 | 58.17652 | 8.22060 | 3507 ft | 212 kts | 72° |
| 2026-04-21 14:28 | 58.18054 | 8.24757 | 3510 ft | 212 kts | 72° |
| 2026-04-21 14:28 | 58.18453 | 8.27461 | 3511 ft | 212 kts | 72° |
| 2026-04-21 14:28 | 58.18847 | 8.30157 | 3508 ft | 212 kts | 72° |
| 2026-04-21 14:28 | 58.19254 | 8.32844 | 3509 ft | 211 kts | 67° |
| 2026-04-21 14:29 | 58.20128 | 8.34879 | 3504 ft | 188 kts | 23° |
| 2026-04-21 14:29 | 58.21308 | 8.35043 | 3210 ft | 172 kts | 340° |
| 2026-04-21 14:29 | 58.22256 | 8.33913 | 2917 ft | 156 kts | 325° |
| 2026-04-21 14:29 | 58.23174 | 8.32768 | 2322 ft | 159 kts | 331° |
| 2026-04-21 14:30 | 58.24144 | 8.31787 | 1855 ft | 155 kts | 332° |
| 2026-04-21 14:30 | 58.25004 | 8.30687 | 1762 ft | 144 kts | 316° |
| 2026-04-21 14:30 | 58.25660 | 8.29247 | 1840 ft | 144 kts | 307° |
| 2026-04-21 14:30 | 58.26299 | 8.27787 | 1885 ft | 144 kts | 310° |
| 2026-04-21 14:31 | 58.26957 | 8.26348 | 1852 ft | 145 kts | 308° |
| 2026-04-21 14:31 | 58.27445 | 8.24692 | 1635 ft | 143 kts | 286° |
| 2026-04-21 14:31 | 58.27585 | 8.22841 | 1368 ft | 140 kts | 268° |
| 2026-04-21 14:31 | 58.27482 | 8.21056 | 1301 ft | 135 kts | 253° |
| 2026-04-21 14:32 | 58.27143 | 8.19392 | 1446 ft | 136 kts | 240° |
| 2026-04-21 14:32 | 58.26685 | 8.17793 | 1484 ft | 139 kts | 238° |
| 2026-04-21 14:32 | 58.26094 | 8.16367 | 1410 ft | 137 kts | 222° |
| 2026-04-21 14:32 | 58.25342 | 8.15239 | 1298 ft | 139 kts | 215° |
| 2026-04-21 14:33 | 58.24576 | 8.14177 | 1066 ft | 135 kts | 219° |
| 2026-04-21 14:33 | 58.24225 | 8.12614 | 1071 ft | 133 kts | 275° |
| 2026-04-21 14:33 | 58.24823 | 8.11348 | 1304 ft | 141 kts | 348° |
| 2026-04-21 14:33 | 58.25743 | 8.11902 | 1286 ft | 145 kts | 55° |
| 2026-04-21 14:34 | 58.25795 | 8.13637 | 1284 ft | 138 kts | 132° |
| 2026-04-21 14:34 | 58.24952 | 8.14073 | 1093 ft | 135 kts | 204° |
| 2026-04-21 14:34 | 58.24092 | 8.13397 | 893 ft | 134 kts | 205° |
| 2026-04-21 14:34 | 58.23303 | 8.12463 | 697 ft | 134 kts | 214° |
| 2026-04-21 14:35 | 58.22588 | 8.11367 | 468 ft | 130 kts | 213° |
| 2026-04-21 14:35 | 58.21829 | 8.10389 | 327 ft | 135 kts | 214° |
| 2026-04-21 14:35 | 58.21067 | 8.09386 | 95 ft | 131 kts | 213° |
| 2026-04-21 14:35 | 58.20410 | 8.08526 | 58 ft | 84 kts | 215° |
| 2026-04-21 14:36 | 58.20163 | 8.08188 | 54 ft | 23 kts | 216° |
| 2026-04-21 14:36 | 58.19995 | 8.07973 | 55 ft | 31 kts | 213° |
| 2026-04-21 14:36 | 58.19822 | 8.07745 | 55 ft | 29 kts | 215° |
| 2026-04-21 14:36 | 58.19711 | 8.07556 | 59 ft | 10 kts | 270° |
| 2026-04-21 14:37 | 58.19773 | 8.07457 | 58 ft | 14 kts | 341° |
| 2026-04-21 14:37 | 58.19874 | 8.07396 | 53 ft | 17 kts | 342° |
| 2026-04-21 14:37 | 58.19992 | 8.07368 | 58 ft | 18 kts | 25° |
| 2026-04-21 14:37 | 58.20072 | 8.07466 | 56 ft | 0 kts | 32° |
| 2026-04-21 14:45 | 58.20087 | 8.07363 | 52 ft | 0 kts | 302° |